Time;durP1;ratioP1;P1;durP2;ratioP2;P2;SDS_P1;SDS_P2;PMS_P1;PMS_P2;Temp;Humidity;BMP_temperature;BMP_pressure;BME280_temperature;BME280_humidity;BME280_pressure;Samples;Min_cycle;Max_cycle;Signal;HPM_P1;HPM_P2
2022/08/08 00:02:40;;;;;;;;;;;;;;;30.25;26.21;99384.47;4514310;31;35015;-86
2022/08/08 00:05:17;;;;;;;;;;;;;;;30.20;26.32;99383.91;4515145;31;33511;-84
2022/08/08 00:07:49;;;;;;;;;;;;;;;30.09;26.52;99381.03;4515256;31;35067;-85
2022/08/08 00:10:16;;;;;;;;;;;;;;;30.11;26.63;99381.78;4513319;31;34437;-86
2022/08/08 00:13:12;;;;;;;;;;;;;;;29.76;27.17;99383.06;4511705;31;34148;-84
2022/08/08 00:16:25;;;;;;;;;;;;;;;29.68;27.63;99381.84;4508539;31;34190;-83
2022/08/08 00:18:53;;;;;;;;;;;;;;;29.37;27.95;99370.34;4502060;31;35061;-84
2022/08/08 00:21:22;;;;;;;;;;;;;;;29.76;27.72;99374.19;4503055;31;34289;-85
2022/08/08 00:23:51;;;;;;;;;;;;;;;29.54;28.02;99371.97;4502066;31;34150;-83
2022/08/08 00:26:22;;;;;;;;;;;;;;;29.84;27.69;99369.22;4505169;31;33551;-90
2022/08/08 00:29:03;;;;;;;;;;;;;;;29.88;27.70;99354.72;4502498;31;35025;-90
2022/08/08 00:31:37;;;;;;;;;;;;;;;29.77;27.82;99357.19;4506528;31;34609;-86
2022/08/08 00:37:32;;;;;;;;;;;;;;;29.91;27.68;99346.50;4503743;31;33335;-89
2022/08/08 00:40:26;;;;;;;;;;;;;;;29.84;27.99;99344.31;4508518;31;34510;-84
2022/08/08 00:43:20;;;;;;;;;;;;;;;29.75;28.20;99346.63;4501336;31;33982;-90
2022/08/08 00:45:55;;;;;;;;;;;;;;;29.47;28.50;99350.16;4508400;31;34281;-87
2022/08/08 00:48:38;;;;;;;;;;;;;;;29.52;28.55;99353.37;4511782;31;32977;-89
2022/08/08 00:51:24;;;;;;;;;;;;;;;29.56;28.43;99354.91;4497824;31;34289;-85
2022/08/08 00:54:08;;;;;;;;;;;;;;;29.64;28.40;99350.94;4510726;31;35717;-85
2022/08/08 00:56:42;;;;;;;;;;;;;;;29.75;28.15;99345.78;4514736;31;34440;-85
2022/08/08 00:59:30;;;;;;;;;;;;;;;29.63;28.46;99351.91;4514877;31;32622;-90
2022/08/08 01:02:28;;;;;;;;;;;;;;;29.57;28.44;99348.62;4498933;31;35156;-86
2022/08/08 01:05:27;;;;;;;;;;;;;;;29.71;28.12;99346.91;4512347;31;35221;-86
2022/08/08 01:08:27;;;;;;;;;;;;;;;29.67;28.41;99345.41;4514548;31;34163;-85
2022/08/08 01:10:56;;;;;;;;;;;;;;;30.02;28.04;99346.66;4505057;31;33281;-86
2022/08/08 01:13:42;;;;;;;;;;;;;;;29.96;28.05;99344.38;4514242;31;34925;-86
2022/08/08 01:16:33;;;;;;;;;;;;;;;29.94;27.94;99334.75;4514040;31;35179;-86
2022/08/08 01:19:16;;;;;;;;;;;;;;;30.37;27.49;99340.00;4507482;31;33283;-85
2022/08/08 01:22:19;;;;;;;;;;;;;;;30.09;27.79;99340.94;4514038;31;33462;-85
2022/08/08 01:25:20;;;;;;;;;;;;;;;29.86;28.21;99340.59;4513869;31;33883;-84
2022/08/08 01:28:05;;;;;;;;;;;;;;;29.93;28.19;99349.06;4513712;31;33941;-88
2022/08/08 01:30:52;;;;;;;;;;;;;;;30.01;28.00;99344.97;4514097;31;34210;-85
2022/08/08 01:33:41;;;;;;;;;;;;;;;30.22;27.59;99348.06;4514400;31;33024;-84
2022/08/08 01:36:43;;;;;;;;;;;;;;;30.11;27.75;99337.19;4509763;31;33903;-89
2022/08/08 01:39:32;;;;;;;;;;;;;;;30.02;27.82;99330.63;4513933;31;34396;-84
2022/08/08 01:42:18;;;;;;;;;;;;;;;30.24;27.52;99329.28;4513183;31;34571;-85
2022/08/08 01:45:02;;;;;;;;;;;;;;;30.22;27.58;99325.81;4497970;31;32473;-85
2022/08/08 01:47:36;;;;;;;;;;;;;;;30.06;27.57;99324.13;4509867;31;33899;-86
2022/08/08 01:50:32;;;;;;;;;;;;;;;29.66;27.91;99316.94;4505870;31;34480;-84
2022/08/08 01:53:27;;;;;;;;;;;;;;;29.57;28.22;99324.59;4503787;31;33456;-85
2022/08/08 01:56:15;;;;;;;;;;;;;;;29.62;28.03;99326.12;4506916;31;33330;-85
2022/08/08 01:58:57;;;;;;;;;;;;;;;29.28;28.51;99322.84;4513264;31;33893;-86
2022/08/08 02:01:49;;;;;;;;;;;;;;;28.97;28.94;99323.81;4513982;31;35259;-84
2022/08/08 02:04:38;;;;;;;;;;;;;;;28.80;29.22;99330.19;4507559;31;34131;-84
2022/08/08 02:07:25;;;;;;;;;;;;;;;29.44;28.46;99334.31;4497650;31;33480;-84
2022/08/08 02:10:15;;;;;;;;;;;;;;;29.56;28.29;99332.69;4509287;31;34061;-85
2022/08/08 02:13:11;;;;;;;;;;;;;;;29.88;28.15;99333.31;4499928;31;34178;-85
2022/08/08 02:16:14;;;;;;;;;;;;;;;30.46;27.36;99332.25;4512864;31;34264;-83
2022/08/08 02:18:53;;;;;;;;;;;;;;;29.95;27.79;99334.66;4503632;31;33318;-84
2022/08/08 02:24:26;;;;;;;;;;;;;;;30.16;27.85;99344.94;4501436;31;35280;-84
2022/08/08 02:26:58;;;;;;;;;;;;;;;29.85;28.25;99348.69;4500612;31;34863;-84
2022/08/08 02:29:37;;;;;;;;;;;;;;;29.53;28.56;99344.41;4505301;31;33711;-85
2022/08/08 02:32:18;;;;;;;;;;;;;;;29.56;28.61;99349.56;4514671;31;34817;-84
2022/08/08 02:35:01;;;;;;;;;;;;;;;29.60;28.62;99360.94;4516017;31;34205;-89
2022/08/08 02:37:48;;;;;;;;;;;;;;;29.53;28.60;99360.44;4502337;31;34010;-86
2022/08/08 02:40:35;;;;;;;;;;;;;;;29.43;28.71;99353.94;4515266;31;34686;-86
2022/08/08 02:43:24;;;;;;;;;;;;;;;29.75;28.67;99353.78;4514038;31;32740;-85
2022/08/08 02:46:17;;;;;;;;;;;;;;;29.64;28.63;99357.12;4500115;31;34482;-85
2022/08/08 02:49:03;;;;;;;;;;;;;;;29.60;28.80;99360.09;4514358;31;34306;-86
2022/08/08 02:51:31;;;;;;;;;;;;;;;29.64;28.82;99356.28;4515204;31;32949;-85
2022/08/08 02:54:21;;;;;;;;;;;;;;;29.39;29.19;99352.41;4515618;31;34037;-85
2022/08/08 02:57:13;;;;;;;;;;;;;;;29.53;29.06;99362.25;4515931;31;35136;-85
2022/08/08 03:00:05;;;;;;;;;;;;;;;29.51;29.14;99362.34;4514874;31;33796;-85
2022/08/08 03:03:11;;;;;;;;;;;;;;;29.65;28.92;99366.84;4515774;31;33649;-85
2022/08/08 03:05:44;;;;;;;;;;;;;;;29.63;28.81;99365.25;4515522;31;34250;-85
2022/08/08 03:08:12;;;;;;;;;;;;;;;29.51;29.00;99367.69;4515525;31;34099;-86
2022/08/08 03:10:52;;;;;;;;;;;;;;;29.23;29.20;99363.19;4515047;31;34333;-85
2022/08/08 03:13:53;;;;;;;;;;;;;;;28.81;30.49;99362.09;4515762;31;32773;-86
2022/08/08 03:16:44;;;;;;;;;;;;;;;28.74;31.18;99371.41;4489109;31;33816;-85
2022/08/08 03:19:18;;;;;;;;;;;;;;;29.15;30.74;99369.94;4513697;31;35145;-85
2022/08/08 03:21:46;;;;;;;;;;;;;;;29.27;30.70;99374.53;4515551;31;33966;-86
2022/08/08 03:24:26;;;;;;;;;;;;;;;29.20;30.68;99374.03;4515429;31;33188;-89
2022/08/08 03:26:59;;;;;;;;;;;;;;;28.89;31.08;99375.00;4515095;31;35220;-86
2022/08/08 03:29:29;;;;;;;;;;;;;;;28.60;31.18;99380.25;4500779;31;34406;-91
2022/08/08 03:35:10;;;;;;;;;;;;;;;27.88;32.33;99370.06;4513720;31;32966;-87
2022/08/08 03:37:39;;;;;;;;;;;;;;;28.42;31.51;99370.63;4513834;31;34563;-86
2022/08/08 03:40:26;;;;;;;;;;;;;;;28.73;30.88;99368.84;4514074;31;34227;-86
2022/08/08 03:43:00;;;;;;;;;;;;;;;28.55;31.19;99373.44;4515086;31;33952;-90
2022/08/08 03:45:46;;;;;;;;;;;;;;;28.31;31.39;99373.03;4515408;31;33489;-86
2022/08/08 03:48:33;;;;;;;;;;;;;;;28.71;30.82;99370.75;4502295;31;34116;-86
2022/08/08 03:51:21;;;;;;;;;;;;;;;28.91;30.44;99373.12;4514544;31;35341;-85
2022/08/08 03:54:08;;;;;;;;;;;;;;;29.26;29.92;99376.34;4514893;31;35112;-86
2022/08/08 03:56:42;;;;;;;;;;;;;;;29.43;29.81;99369.97;4514135;31;34540;-86
2022/08/08 03:59:12;;;;;;;;;;;;;;;29.44;29.98;99370.84;4514628;31;34702;-85
2022/08/08 04:01:50;;;;;;;;;;;;;;;28.89;30.46;99375.00;4515508;31;35286;-87
2022/08/08 04:04:38;;;;;;;;;;;;;;;29.13;30.17;99377.19;4515529;31;34994;-85
2022/08/08 04:07:07;;;;;;;;;;;;;;;29.55;29.72;99374.56;4514822;31;34315;-85
2022/08/08 04:09:36;;;;;;;;;;;;;;;29.51;29.79;99377.50;4515258;31;34980;-85
2022/08/08 04:12:23;;;;;;;;;;;;;;;29.41;29.98;99377.22;4499422;31;35236;-86
2022/08/08 04:14:53;;;;;;;;;;;;;;;29.71;29.57;99390.53;4511652;31;33945;-91
2022/08/08 04:17:21;;;;;;;;;;;;;;;29.91;29.35;99383.94;4515030;31;33472;-89
2022/08/08 04:20:09;;;;;;;;;;;;;;;29.91;29.28;99386.59;4507890;31;33807;-86
2022/08/08 04:22:37;;;;;;;;;;;;;;;29.86;29.54;99386.03;4499394;31;34401;-85
2022/08/08 04:25:06;;;;;;;;;;;;;;;30.02;29.21;99394.78;4514293;31;34463;-86
2022/08/08 04:27:34;;;;;;;;;;;;;;;30.08;29.09;99390.00;4499901;31;33365;-86
2022/08/08 04:30:21;;;;;;;;;;;;;;;29.62;29.94;99398.25;4500066;31;35020;-86
2022/08/08 04:32:50;;;;;;;;;;;;;;;29.59;30.25;99402.00;4512024;31;33801;-86
2022/08/08 04:35:18;;;;;;;;;;;;;;;29.63;30.12;99398.16;4515013;31;34355;-86
2022/08/08 04:37:49;;;;;;;;;;;;;;;30.23;29.84;99397.06;4515365;31;33137;-86
2022/08/08 04:40:18;;;;;;;;;;;;;;;30.04;30.02;99398.25;4507157;31;33976;-87
2022/08/08 04:42:51;;;;;;;;;;;;;;;29.88;30.21;99402.81;4514627;31;34084;-87
2022/08/08 04:45:24;;;;;;;;;;;;;;;30.01;30.31;99401.09;4513754;31;35262;-86
2022/08/08 04:47:53;;;;;;;;;;;;;;;29.86;31.08;99402.06;4514573;31;34302;-85
2022/08/08 04:50:20;;;;;;;;;;;;;;;29.98;31.08;99403.97;4513091;31;34097;-85
2022/08/08 04:52:52;;;;;;;;;;;;;;;30.29;31.28;99405.56;4515163;31;34189;-91
2022/08/08 04:55:31;;;;;;;;;;;;;;;30.35;31.48;99400.78;4513832;31;34232;-86
2022/08/08 04:58:19;;;;;;;;;;;;;;;30.41;31.09;99406.56;4504742;31;32840;-85
2022/08/08 05:00:48;;;;;;;;;;;;;;;29.80;32.07;99410.47;4507610;31;33853;-86
2022/08/08 05:03:18;;;;;;;;;;;;;;;28.65;33.43;99419.13;4514736;31;35256;-85
2022/08/08 05:06:05;;;;;;;;;;;;;;;29.47;32.35;99422.28;4514787;31;34279;-86
2022/08/08 05:08:41;;;;;;;;;;;;;;;29.94;31.61;99413.13;4514212;31;34011;-89
2022/08/08 05:11:12;;;;;;;;;;;;;;;29.60;32.90;99413.53;4500310;31;34930;-86
2022/08/08 05:13:50;;;;;;;;;;;;;;;29.43;33.26;99418.03;4514666;31;34150;-84
2022/08/08 05:16:30;;;;;;;;;;;;;;;29.54;33.02;99410.22;4513903;31;34390;-85
2022/08/08 05:19:17;;;;;;;;;;;;;;;29.61;32.92;99412.56;4513304;31;33055;-84
2022/08/08 05:22:05;;;;;;;;;;;;;;;29.35;33.58;99409.62;4501686;31;33990;-86
2022/08/08 05:24:33;;;;;;;;;;;;;;;29.88;32.79;99416.19;4514700;31;34058;-85
2022/08/08 05:27:03;;;;;;;;;;;;;;;29.96;32.70;99421.91;4514288;31;34930;-85
2022/08/08 05:29:31;;;;;;;;;;;;;;;29.46;33.28;99420.53;4506987;31;33850;-86
2022/08/08 05:32:04;;;;;;;;;;;;;;;29.41;33.68;99427.97;4506888;31;34211;-86
2022/08/08 05:34:33;;;;;;;;;;;;;;;28.97;34.57;99431.44;4511580;31;34368;-85
2022/08/08 05:37:03;;;;;;;;;;;;;;;29.06;34.37;99425.62;4514133;31;35556;-86
2022/08/08 05:39:43;;;;;;;;;;;;;;;28.68;35.40;99440.28;4514433;31;34060;-86
2022/08/08 05:42:14;;;;;;;;;;;;;;;28.27;36.71;99439.00;4497217;31;35017;-86
2022/08/08 05:44:45;;;;;;;;;;;;;;;27.95;37.38;99439.88;4500355;31;35242;-86
2022/08/08 05:47:15;;;;;;;;;;;;;;;28.64;36.10;99428.06;4513776;31;34268;-86
2022/08/08 05:49:47;;;;;;;;;;;;;;;28.77;36.22;99429.09;4513157;31;32978;-86
2022/08/08 05:52:23;;;;;;;;;;;;;;;29.26;35.31;99421.75;4513714;31;34926;-85
2022/08/08 05:55:05;;;;;;;;;;;;;;;28.66;36.20;99439.53;4499872;31;34305;-85
2022/08/08 05:57:37;;;;;;;;;;;;;;;28.33;36.69;99435.97;4515297;31;35055;-86
2022/08/08 06:00:27;;;;;;;;;;;;;;;28.53;36.46;99437.56;4509957;31;33510;-85
2022/08/08 06:03:09;;;;;;;;;;;;;;;28.89;36.15;99423.03;4498879;31;35093;-84
2022/08/08 06:05:49;;;;;;;;;;;;;;;27.80;38.21;99415.78;4504825;31;34522;-85
2022/08/08 06:08:28;;;;;;;;;;;;;;;28.26;37.64;99423.06;4516381;31;33970;-85
2022/08/08 06:11:01;;;;;;;;;;;;;;;28.30;37.80;99429.97;4515723;31;33444;-86
2022/08/08 06:13:30;;;;;;;;;;;;;;;27.33;39.68;99439.59;4516043;31;34850;-86
2022/08/08 06:16:14;;;;;;;;;;;;;;;27.66;39.31;99439.63;4515882;31;34134;-87
2022/08/08 06:18:43;;;;;;;;;;;;;;;28.74;36.72;99442.59;4515844;31;34036;-86
2022/08/08 06:21:10;;;;;;;;;;;;;;;28.67;36.75;99438.56;4500952;31;33429;-90
2022/08/08 06:24:00;;;;;;;;;;;;;;;28.02;37.38;99433.28;4515729;31;34334;-85
2022/08/08 06:26:42;;;;;;;;;;;;;;;28.68;36.80;99437.59;4516041;31;34205;-86
2022/08/08 06:29:24;;;;;;;;;;;;;;;28.58;36.95;99440.81;4511150;31;34587;-86
2022/08/08 06:32:13;;;;;;;;;;;;;;;28.96;36.21;99434.22;4515634;31;33611;-84
2022/08/08 06:34:45;;;;;;;;;;;;;;;28.61;37.15;99427.31;4515253;31;34187;-85
2022/08/08 06:37:33;;;;;;;;;;;;;;;28.81;37.48;99433.31;4503391;31;33640;-85
2022/08/08 06:40:05;;;;;;;;;;;;;;;29.06;37.15;99441.62;4503014;31;34828;-86
2022/08/08 06:42:45;;;;;;;;;;;;;;;29.70;35.96;99442.25;4515724;31;34195;-86
2022/08/08 06:45:16;;;;;;;;;;;;;;;30.03;35.65;99441.94;4515590;31;33891;-87
2022/08/08 06:47:43;;;;;;;;;;;;;;;29.94;34.88;99439.88;4502365;31;34075;-88
2022/08/08 06:50:25;;;;;;;;;;;;;;;29.83;35.37;99447.69;4514318;31;34056;-88
2022/08/08 06:53:03;;;;;;;;;;;;;;;30.19;34.04;99443.69;4514704;31;33303;-87
2022/08/08 06:55:47;;;;;;;;;;;;;;;29.76;34.46;99441.88;4515705;31;34298;-87
2022/08/08 06:58:30;;;;;;;;;;;;;;;30.34;33.01;99440.03;4515757;31;35226;-87
2022/08/08 07:01:01;;;;;;;;;;;;;;;30.42;32.84;99445.78;4515157;31;34990;-90
2022/08/08 07:03:48;;;;;;;;;;;;;;;30.02;33.70;99452.75;4511918;31;33185;-89
2022/08/08 07:06:37;;;;;;;;;;;;;;;30.12;32.27;99442.31;4515054;31;35127;-89
2022/08/08 07:09:12;;;;;;;;;;;;;;;28.67;35.50;99449.22;4514682;31;34393;-89
2022/08/08 07:11:47;;;;;;;;;;;;;;;29.79;32.49;99435.47;4510558;31;34781;-89
2022/08/08 07:14:20;;;;;;;;;;;;;;;29.53;32.51;99437.91;4505123;31;34036;-89
2022/08/08 07:16:48;;;;;;;;;;;;;;;29.68;33.01;99432.62;4514474;31;34227;-89
2022/08/08 07:19:23;;;;;;;;;;;;;;;29.82;31.77;99427.28;4501956;31;35441;-88
2022/08/08 07:21:56;;;;;;;;;;;;;;;28.95;32.88;99443.19;4511650;31;34371;-87
2022/08/08 07:24:40;;;;;;;;;;;;;;;28.43;33.20;99449.69;4514615;31;34842;-88
2022/08/08 07:27:10;;;;;;;;;;;;;;;28.55;33.08;99453.47;4513564;31;35116;-88
2022/08/08 07:29:44;;;;;;;;;;;;;;;29.17;31.23;99450.78;4514618;31;34557;-90
2022/08/08 07:32:30;;;;;;;;;;;;;;;29.72;30.16;99452.84;4501787;31;34634;-89
2022/08/08 07:34:58;;;;;;;;;;;;;;;29.13;31.04;99449.25;4508123;31;33184;-90
2022/08/08 07:37:29;;;;;;;;;;;;;;;29.57;29.51;99452.81;4513565;31;34230;-88
2022/08/08 07:40:19;;;;;;;;;;;;;;;29.36;29.58;99450.56;4515397;31;34398;-92
2022/08/08 07:42:55;;;;;;;;;;;;;;;29.75;29.48;99452.66;4514718;31;34059;-89
2022/08/08 07:45:23;;;;;;;;;;;;;;;29.85;29.19;99459.13;4514168;31;33982;-88
2022/08/08 07:48:01;;;;;;;;;;;;;;;30.42;27.77;99461.81;4488511;31;33786;-91
2022/08/08 07:50:32;;;;;;;;;;;;;;;30.11;29.22;99464.69;4501742;31;34076;-90
2022/08/08 07:53:00;;;;;;;;;;;;;;;29.45;30.15;99464.22;4505981;31;34741;-89
2022/08/08 07:55:29;;;;;;;;;;;;;;;30.16;28.33;99463.47;4514924;31;33444;-87
2022/08/08 07:58:03;;;;;;;;;;;;;;;30.18;28.48;99476.75;4513477;31;34216;-89
2022/08/08 08:00:52;;;;;;;;;;;;;;;30.92;27.45;99471.06;4515320;31;34126;-87
2022/08/08 08:03:29;;;;;;;;;;;;;;;29.89;29.67;99468.72;4514830;31;35034;-88
2022/08/08 08:06:12;;;;;;;;;;;;;;;29.33;31.52;99471.16;4511369;31;33417;-88
2022/08/08 08:08:42;;;;;;;;;;;;;;;30.01;28.61;99475.09;4514824;31;34166;-87
2022/08/08 08:11:20;;;;;;;;;;;;;;;30.24;28.58;99468.34;4514344;31;34497;-87
2022/08/08 08:13:59;;;;;;;;;;;;;;;30.30;28.18;99470.59;4515217;31;34099;-89
2022/08/08 08:16:35;;;;;;;;;;;;;;;29.77;28.28;99469.44;4510167;31;34267;-86
2022/08/08 08:19:04;;;;;;;;;;;;;;;29.26;28.24;99468.97;4502775;31;34614;-85
2022/08/08 08:21:51;;;;;;;;;;;;;;;30.08;28.41;99471.09;4514620;31;34854;-86
2022/08/08 08:24:27;;;;;;;;;;;;;;;30.42;29.14;99472.53;4515230;31;35072;-88
2022/08/08 08:27:01;;;;;;;;;;;;;;;29.85;29.28;99466.31;4514218;31;33563;-87
2022/08/08 08:29:30;;;;;;;;;;;;;;;29.75;30.17;99466.87;4514550;31;34970;-86
2022/08/08 08:31:58;;;;;;;;;;;;;;;30.98;28.83;99475.97;4514728;31;33872;-87
2022/08/08 08:34:32;;;;;;;;;;;;;;;31.53;28.01;99470.56;4514950;31;34970;-87
2022/08/08 08:37:01;;;;;;;;;;;;;;;30.89;28.82;99481.97;4514363;31;34266;-85
2022/08/08 08:39:35;;;;;;;;;;;;;;;31.10;29.42;99489.50;4514256;31;33952;-85
2022/08/08 08:42:23;;;;;;;;;;;;;;;30.49;29.28;99491.69;4514427;31;33978;-86
2022/08/08 08:45:04;;;;;;;;;;;;;;;30.87;28.85;99499.06;4515248;31;34312;-86
2022/08/08 08:47:51;;;;;;;;;;;;;;;31.49;27.87;99508.31;4511825;31;33753;-86
2022/08/08 08:50:21;;;;;;;;;;;;;;;31.88;27.24;99503.00;4514363;31;34824;-86
2022/08/08 08:53:05;;;;;;;;;;;;;;;32.00;27.34;99494.09;4514972;31;35153;-89
2022/08/08 08:55:55;;;;;;;;;;;;;;;32.46;26.64;99491.66;4503512;31;34176;-89
2022/08/08 08:58:27;;;;;;;;;;;;;;;33.10;25.62;99485.22;4513755;31;33370;-87
2022/08/08 09:00:56;;;;;;;;;;;;;;;32.82;26.47;99494.47;4514246;31;34081;-88
2022/08/08 09:03:47;;;;;;;;;;;;;;;32.27;26.93;99493.09;4509319;31;35087;-86
2022/08/08 09:06:20;;;;;;;;;;;;;;;31.75;27.68;99497.63;4507859;31;35147;-88
2022/08/08 09:09:09;;;;;;;;;;;;;;;32.67;26.79;99496.47;4509065;31;34327;-88
2022/08/08 09:12:00;;;;;;;;;;;;;;;32.36;28.16;99498.66;4514477;31;34145;-88
2022/08/08 09:14:36;;;;;;;;;;;;;;;32.45;27.49;99495.34;4514043;31;33978;-88
2022/08/08 09:17:15;;;;;;;;;;;;;;;32.42;27.05;99492.00;4514595;31;33761;-87
2022/08/08 09:19:46;;;;;;;;;;;;;;;32.34;27.52;99500.59;4498994;31;33932;-87
2022/08/08 09:22:34;;;;;;;;;;;;;;;32.07;27.65;99508.78;4511149;31;33310;-87
2022/08/08 09:25:03;;;;;;;;;;;;;;;32.67;27.27;99507.19;4512802;31;32979;-87
2022/08/08 09:27:30;;;;;;;;;;;;;;;31.85;29.00;99503.19;4514333;31;34806;-88
2022/08/08 09:30:18;;;;;;;;;;;;;;;31.62;29.71;99502.09;4503288;31;33388;-86
2022/08/08 09:32:50;;;;;;;;;;;;;;;32.01;29.39;99494.94;4514859;31;33831;-87
2022/08/08 09:35:38;;;;;;;;;;;;;;;31.25;30.32;99504.56;4505207;31;32562;-87
2022/08/08 09:38:22;;;;;;;;;;;;;;;31.59;30.28;99497.78;4508696;31;34151;-87
2022/08/08 09:40:54;;;;;;;;;;;;;;;31.60;29.88;99504.03;4513111;31;33243;-87
2022/08/08 09:43:23;;;;;;;;;;;;;;;31.13;30.58;99500.03;4506877;31;34542;-88
2022/08/08 09:46:13;;;;;;;;;;;;;;;31.36;30.35;99491.31;4503704;31;35291;-88
2022/08/08 09:48:51;;;;;;;;;;;;;;;31.01;31.20;99491.00;4506033;31;35072;-86
2022/08/08 09:51:21;;;;;;;;;;;;;;;31.23;30.70;99480.56;4512325;31;33061;-88
2022/08/08 09:53:55;;;;;;;;;;;;;;;31.11;31.42;99477.88;4502591;31;34107;-87
2022/08/08 09:56:40;;;;;;;;;;;;;;;31.26;30.49;99479.50;4503279;31;34323;-87
2022/08/08 09:59:11;;;;;;;;;;;;;;;31.24;30.54;99486.78;4514458;31;33910;-87
2022/08/08 10:01:59;;;;;;;;;;;;;;;30.64;32.00;99479.12;4515503;31;34524;-86
2022/08/08 10:04:40;;;;;;;;;;;;;;;31.47;30.75;99478.06;4516184;31;34668;-86
2022/08/08 10:07:14;;;;;;;;;;;;;;;31.60;30.81;99471.88;4510471;31;34068;-86
2022/08/08 10:09:43;;;;;;;;;;;;;;;31.42;31.00;99477.53;4513993;31;35052;-84
2022/08/08 10:12:37;;;;;;;;;;;;;;;31.38;31.75;99473.34;4502802;31;33393;-86
2022/08/08 10:15:20;;;;;;;;;;;;;;;30.72;32.36;99487.53;4504482;31;35099;-85
2022/08/08 10:17:51;;;;;;;;;;;;;;;30.69;32.48;99499.31;4506246;31;35275;-86
2022/08/08 10:20:39;;;;;;;;;;;;;;;31.40;31.46;99503.56;4509111;31;34358;-86
2022/08/08 10:23:17;;;;;;;;;;;;;;;31.83;30.93;99502.44;4508720;31;32826;-87
2022/08/08 10:26:05;;;;;;;;;;;;;;;31.62;31.78;99496.72;4502909;31;33794;-87
2022/08/08 10:28:55;;;;;;;;;;;;;;;30.82;32.31;99496.72;4503073;31;34820;-86
2022/08/08 10:34:15;;;;;;;;;;;;;;;31.21;31.63;99484.28;4512344;31;33508;-86
2022/08/08 10:36:47;;;;;;;;;;;;;;;31.02;31.99;99480.16;4515315;31;35083;-86
2022/08/08 10:39:17;;;;;;;;;;;;;;;31.13;31.78;99474.09;4503239;31;34777;-86
2022/08/08 10:42:07;;;;;;;;;;;;;;;30.95;32.12;99476.22;4505425;31;34307;-87
2022/08/08 10:44:42;;;;;;;;;;;;;;;31.53;31.17;99460.72;4516185;31;32997;-86
2022/08/08 10:47:13;;;;;;;;;;;;;;;31.44;31.42;99464.91;4514466;31;34054;-86
2022/08/08 10:49:42;;;;;;;;;;;;;;;30.72;33.13;99476.81;4514962;31;35334;-86
2022/08/08 10:52:33;;;;;;;;;;;;;;;30.40;33.78;99493.16;4514436;31;34403;-91
2022/08/08 10:55:05;;;;;;;;;;;;;;;28.69;37.09;99498.91;4497498;31;33766;-89
2022/08/08 10:57:43;;;;;;;;;;;;;;;29.78;35.49;99495.25;4510494;31;34228;-90
2022/08/08 11:00:21;;;;;;;;;;;;;;;30.39;34.82;99503.97;4500104;31;33952;-92
2022/08/08 11:02:49;;;;;;;;;;;;;;;28.76;38.77;99510.09;4499800;31;34015;-91
2022/08/08 11:05:16;;;;;;;;;;;;;;;28.28;39.85;99501.16;4499802;31;34140;-88
2022/08/08 11:07:47;;;;;;;;;;;;;;;29.44;37.91;99489.22;4506294;31;34492;-92
2022/08/08 11:10:35;;;;;;;;;;;;;;;29.17;39.42;99498.84;4498575;31;33763;-92
2022/08/08 11:13:02;;;;;;;;;;;;;;;28.28;40.99;99501.16;4511004;31;33877;-93
2022/08/08 11:15:50;;;;;;;;;;;;;;;28.46;40.81;99486.84;4515232;31;33026;-92
2022/08/08 11:18:29;;;;;;;;;;;;;;;29.12;39.48;99501.81;4515655;31;34702;-90
2022/08/08 11:20:57;;;;;;;;;;;;;;;28.70;40.59;99494.41;4514247;31;35218;-92
2022/08/08 11:23:24;;;;;;;;;;;;;;;29.62;39.07;99486.41;4514297;31;35050;-84
2022/08/08 11:26:05;;;;;;;;;;;;;;;29.13;39.50;99490.16;4509097;31;32993;-92
2022/08/08 11:28:33;;;;;;;;;;;;;;;28.59;40.93;99485.22;4498379;31;34550;-90
2022/08/08 11:31:05;;;;;;;;;;;;;;;28.87;40.44;99483.66;4508527;31;35228;-85
2022/08/08 11:33:36;;;;;;;;;;;;;;;29.30;40.17;99492.72;4513633;31;33895;-88
2022/08/08 11:36:23;;;;;;;;;;;;;;;29.32;39.34;99500.63;4508647;31;33843;-93
2022/08/08 11:38:55;;;;;;;;;;;;;;;28.39;41.58;99488.13;4502310;31;34766;-91
2022/08/08 11:41:23;;;;;;;;;;;;;;;29.20;40.67;99496.00;4502527;31;35267;-92
2022/08/08 11:43:52;;;;;;;;;;;;;;;29.28;40.41;99491.06;4506700;31;34743;-89
2022/08/08 11:46:24;;;;;;;;;;;;;;;29.09;41.17;99500.19;4501687;31;33263;-90
2022/08/08 11:48:54;;;;;;;;;;;;;;;29.28;40.74;99507.09;4509164;31;34653;-89
2022/08/08 11:51:22;;;;;;;;;;;;;;;29.00;41.51;99508.72;4499814;31;35171;-93
2022/08/08 11:54:06;;;;;;;;;;;;;;;28.54;42.96;99500.63;4504224;31;35031;-94
2022/08/08 11:56:54;;;;;;;;;;;;;;;28.33;43.72;99499.97;4499359;31;32848;-93
2022/08/08 11:59:31;;;;;;;;;;;;;;;28.49;43.14;99502.69;4514073;31;34315;-81
2022/08/08 12:02:25;;;;;;;;;;;;;;;28.11;44.40;99500.28;4509486;31;34251;-83
2022/08/08 12:05:05;;;;;;;;;;;;;;;27.91;45.03;99507.63;4499985;31;34990;-84
2022/08/08 12:07:45;;;;;;;;;;;;;;;27.81;45.30;99512.59;4504742;31;33042;-85
2022/08/08 12:10:16;;;;;;;;;;;;;;;28.21;44.94;99510.44;4508783;31;35402;-89
2022/08/08 12:12:44;;;;;;;;;;;;;;;27.98;45.05;99515.19;4513862;31;34401;-88
2022/08/08 12:15:25;;;;;;;;;;;;;;;28.27;44.23;99510.12;4515183;31;35046;-88
2022/08/08 12:17:52;;;;;;;;;;;;;;;28.06;44.16;99507.66;4515291;31;34222;-83
2022/08/08 12:20:20;;;;;;;;;;;;;;;27.63;45.26;99509.91;4513616;31;34153;-85
2022/08/08 12:22:50;;;;;;;;;;;;;;;27.14;46.28;99516.84;4515144;31;34216;-88
2022/08/08 12:25:20;;;;;;;;;;;;;;;26.73;47.23;99516.19;4505176;31;33729;-84
2022/08/08 12:28:13;;;;;;;;;;;;;;;27.51;45.81;99513.19;4509117;31;33477;-88
2022/08/08 12:30:42;;;;;;;;;;;;;;;27.06;46.56;99503.03;4512034;31;34003;-86
2022/08/08 12:33:18;;;;;;;;;;;;;;;27.44;45.00;99502.94;4509826;31;33818;-86
2022/08/08 12:35:47;;;;;;;;;;;;;;;28.27;43.28;99504.78;4513068;31;34503;-89
2022/08/08 12:38:19;;;;;;;;;;;;;;;28.19;43.40;99504.34;4514498;31;33622;-86
2022/08/08 12:40:57;;;;;;;;;;;;;;;26.58;45.92;99513.31;4503595;31;34907;-91
2022/08/08 12:43:44;;;;;;;;;;;;;;;28.16;42.49;99509.84;4497920;31;34158;-84
2022/08/08 12:46:27;;;;;;;;;;;;;;;27.91;43.76;99526.28;4512094;31;34172;-85
2022/08/08 12:49:00;;;;;;;;;;;;;;;28.16;43.20;99517.84;4502329;31;33377;-88
2022/08/08 12:51:49;;;;;;;;;;;;;;;27.85;43.89;99525.66;4511293;31;34199;-82
2022/08/08 12:54:27;;;;;;;;;;;;;;;26.92;45.87;99531.16;4503207;31;34461;-87
2022/08/08 12:56:59;;;;;;;;;;;;;;;28.00;43.96;99528.47;4505843;31;33981;-89
2022/08/08 12:59:29;;;;;;;;;;;;;;;27.67;44.33;99517.72;4514588;31;33502;-83
2022/08/08 13:02:21;;;;;;;;;;;;;;;27.95;43.55;99526.03;4514969;31;34237;-84
2022/08/08 13:04:58;;;;;;;;;;;;;;;28.26;43.43;99530.59;4514753;31;34905;-85
2022/08/08 13:07:36;;;;;;;;;;;;;;;27.52;45.16;99536.22;4513114;31;33803;-86
2022/08/08 13:10:30;;;;;;;;;;;;;;;27.54;42.92;99525.47;4513828;31;34107;-89
2022/08/08 13:13:01;;;;;;;;;;;;;;;28.28;40.85;99522.50;4493337;31;33320;-84
2022/08/08 13:15:34;;;;;;;;;;;;;;;27.63;42.56;99519.69;4498721;31;34175;-87
2022/08/08 13:18:01;;;;;;;;;;;;;;;27.09;42.84;99525.03;4510152;31;34825;-88
2022/08/08 13:20:44;;;;;;;;;;;;;;;26.69;43.61;99526.97;4485829;31;32179;-85
2022/08/08 13:23:16;;;;;;;;;;;;;;;27.43;42.32;99520.72;4497711;31;34688;-86
2022/08/08 13:26:04;;;;;;;;;;;;;;;28.24;40.49;99515.63;4499025;31;34390;-90
2022/08/08 13:28:41;;;;;;;;;;;;;;;27.44;41.84;99519.78;4501261;31;34100;-91
2022/08/08 13:31:12;;;;;;;;;;;;;;;27.81;41.25;99516.13;4514637;31;34311;-81
2022/08/08 13:33:45;;;;;;;;;;;;;;;27.41;42.44;99515.47;4514451;31;33866;-87
2022/08/08 13:36:13;;;;;;;;;;;;;;;26.86;43.83;99517.31;4513867;31;34131;-89
2022/08/08 13:38:43;;;;;;;;;;;;;;;27.61;42.90;99500.25;4514164;31;34299;-82
2022/08/08 13:41:10;;;;;;;;;;;;;;;26.50;44.89;99498.66;4503262;31;33351;-93
2022/08/08 13:43:44;;;;;;;;;;;;;;;26.95;44.36;99502.72;4500122;31;32996;-87
2022/08/08 13:46:13;;;;;;;;;;;;;;;27.30;43.33;99501.81;4509991;31;34905;-86
2022/08/08 13:48:54;;;;;;;;;;;;;;;28.10;41.42;99493.22;4513498;31;34015;-85
2022/08/08 13:51:58;;;;;;;;;;;;;;;28.39;40.45;99504.13;4508243;31;33321;-88
2022/08/08 13:54:30;;;;;;;;;;;;;;;28.04;40.93;99490.03;4507225;31;34957;-85
2022/08/08 13:57:02;;;;;;;;;;;;;;;27.17;41.99;99488.28;4513257;31;34572;-85
2022/08/08 13:59:44;;;;;;;;;;;;;;;27.98;40.46;99477.91;4513542;31;34757;-84